Terminal Aerodrome Forecast
Issued by NWS

Home | Current Version | Previous Version | Text Only | Print | Product List | Glossary On
Versions: 1 2 3 4 5 6 7 8 9 10 11 12 13 14
078
FTUS44 KMAF 211723
TAFPEQ
TAF
KPEQ 211723Z 2118/2218 24011KT P6SM FEW200
     FM211900 26015G23KT P6SM FEW200
     FM220100 28011KT P6SM SKC
     FM220700 33010KT P6SM SKC=

USA.gov is the U.S. government's official web portal to all federal, state and local government web resources and services.